createdAt,value
2023-04-19T00:00:09.289Z,92979.00
2023-04-19T00:01:09.292Z,92982.00
2023-04-19T00:02:09.433Z,92982.00
2023-04-19T00:03:09.543Z,92981.00
2023-04-19T00:04:09.840Z,92981.00
2023-04-19T00:05:09.345Z,92977.00
2023-04-19T00:06:09.299Z,92981.00
2023-04-19T00:07:09.293Z,92975.00
2023-04-19T00:08:09.294Z,92977.00
2023-04-19T00:09:09.296Z,92975.00
2023-04-19T00:10:09.300Z,92977.00
2023-04-19T00:11:09.285Z,92973.00
2023-04-19T00:12:09.293Z,92973.00
2023-04-19T00:13:09.287Z,92971.00
2023-04-19T00:14:09.284Z,92973.00
2023-04-19T00:15:09.357Z,92971.00
2023-04-19T00:16:09.349Z,92971.00
2023-04-19T00:17:09.357Z,92971.00
2023-04-19T00:18:09.312Z,92969.00
2023-04-19T00:19:09.283Z,92971.00
2023-04-19T00:20:09.285Z,92971.00
2023-04-19T00:21:09.276Z,92971.00
2023-04-19T00:22:09.284Z,92971.00
2023-04-19T00:23:09.293Z,92973.00
2023-04-19T00:24:09.307Z,92971.00
2023-04-19T00:25:09.316Z,92969.00
2023-04-19T00:26:09.322Z,92971.00
2023-04-19T00:27:09.355Z,92969.00
2023-04-19T00:28:09.332Z,92971.00
2023-04-19T00:29:09.326Z,92971.00
2023-04-19T00:30:09.317Z,92967.00
2023-04-19T00:31:09.391Z,92971.00
2023-04-19T00:32:09.320Z,92969.00
2023-04-19T00:33:09.360Z,92967.00
2023-04-19T00:34:09.333Z,92965.00
2023-04-19T00:35:09.331Z,92965.00
2023-04-19T00:36:09.331Z,92963.00
2023-04-19T00:37:09.331Z,92965.00
2023-04-19T00:38:09.329Z,92963.00
2023-04-19T00:39:09.333Z,92965.00
2023-04-19T00:40:09.328Z,92965.00
2023-04-19T00:41:09.329Z,92963.00
2023-04-19T00:42:09.341Z,92963.00
2023-04-19T00:43:09.336Z,92961.00
2023-04-19T00:44:09.343Z,92959.00
2023-04-19T00:45:09.330Z,92963.00
2023-04-19T00:46:09.362Z,92961.00
2023-04-19T00:47:09.341Z,92961.00
2023-04-19T00:48:09.411Z,92961.00
2023-04-19T00:49:09.351Z,92961.00
2023-04-19T00:50:09.396Z,92961.00
2023-04-19T00:51:09.352Z,92961.00
2023-04-19T00:52:09.364Z,92959.00
2023-04-19T00:53:09.361Z,92959.00
2023-04-19T00:54:09.381Z,92957.00
2023-04-19T00:55:09.384Z,92959.00
2023-04-19T00:56:09.382Z,92959.00
2023-04-19T00:57:09.380Z,92957.00
2023-04-19T00:58:09.396Z,92955.00
2023-04-19T00:59:09.391Z,92957.00
2023-04-19T01:00:09.399Z,92955.00
2023-04-19T01:01:09.441Z,92955.00
2023-04-19T01:02:09.488Z,92953.00
2023-04-19T01:03:09.577Z,92955.00
2023-04-19T01:04:09.458Z,92953.00
2023-04-19T01:05:09.406Z,92951.00
2023-04-19T01:06:09.393Z,92953.00
2023-04-19T01:07:09.419Z,92953.00
2023-04-19T01:08:09.413Z,92951.00
2023-04-19T01:09:09.468Z,92953.00
2023-04-19T01:10:09.423Z,92955.00
2023-04-19T01:11:09.425Z,92951.00
2023-04-19T01:12:09.433Z,92951.00
2023-04-19T01:13:09.427Z,92947.00
2023-04-19T01:14:09.479Z,92947.00
2023-04-19T01:15:09.428Z,92947.00
2023-04-19T01:16:09.462Z,92945.00
2023-04-19T01:17:09.428Z,92947.00
2023-04-19T01:18:09.424Z,92943.00
2023-04-19T01:19:09.425Z,92943.00
2023-04-19T01:20:09.418Z,92943.00
2023-04-19T01:21:09.477Z,92943.00
2023-04-19T01:22:09.434Z,92941.00
2023-04-19T01:23:09.423Z,92939.00
2023-04-19T01:24:09.432Z,92939.00
2023-04-19T01:25:09.430Z,92937.00
2023-04-19T01:26:09.434Z,92937.00
2023-04-19T01:27:09.432Z,92939.00
2023-04-19T01:28:09.417Z,92937.00
2023-04-19T01:29:09.434Z,92939.00
2023-04-19T01:30:09.433Z,92939.00
2023-04-19T01:31:09.462Z,92939.00
2023-04-19T01:32:09.441Z,92939.00
2023-04-19T01:33:09.441Z,92941.00
2023-04-19T01:34:09.438Z,92939.00
2023-04-19T01:35:09.426Z,92941.00
2023-04-19T01:36:09.433Z,92939.00
2023-04-19T01:37:09.436Z,92937.00
2023-04-19T01:38:09.433Z,92937.00
2023-04-19T01:39:09.431Z,92939.00
2023-04-19T01:40:09.424Z,92939.00
2023-04-19T01:41:09.422Z,92937.00
2023-04-19T01:42:09.419Z,92937.00
2023-04-19T01:43:09.404Z,92935.00
2023-04-19T01:44:09.421Z,92934.00
2023-04-19T01:45:09.414Z,92934.00
2023-04-19T01:46:09.406Z,92934.00
2023-04-19T01:47:09.498Z,92935.00
2023-04-19T01:48:09.422Z,92934.00
2023-04-19T01:49:09.407Z,92930.00
2023-04-19T01:50:09.388Z,92930.00
2023-04-19T01:51:09.389Z,92930.00
2023-04-19T01:52:09.435Z,92928.00
2023-04-19T01:53:09.378Z,92928.00
2023-04-19T01:54:09.369Z,92926.00
2023-04-19T01:55:09.374Z,92930.00
2023-04-19T01:56:09.366Z,92928.00
2023-04-19T01:57:09.359Z,92926.00
2023-04-19T01:58:09.354Z,92928.00
2023-04-19T01:59:09.356Z,92924.00
2023-04-19T02:00:09.335Z,92924.00
2023-04-19T02:01:09.407Z,92922.00
2023-04-19T02:02:09.416Z,92922.00
2023-04-19T02:03:09.456Z,92924.00
2023-04-19T02:04:09.325Z,92922.00
2023-04-19T02:05:09.309Z,92922.00
2023-04-19T02:06:09.302Z,92918.00
2023-04-19T02:07:09.301Z,92920.00
2023-04-19T02:08:09.305Z,92920.00
2023-04-19T02:09:09.302Z,92920.00
2023-04-19T02:10:09.276Z,92920.00
2023-04-19T02:11:09.263Z,92920.00
2023-04-19T02:12:09.283Z,92918.00
2023-04-19T02:13:09.253Z,92914.00
2023-04-19T02:14:09.251Z,92916.00
2023-04-19T02:15:09.251Z,92914.00
2023-04-19T02:16:09.285Z,92914.00
2023-04-19T02:17:09.242Z,92912.00
2023-04-19T02:18:09.233Z,92912.00
2023-04-19T02:19:09.252Z,92910.00
2023-04-19T02:20:09.258Z,92908.00
2023-04-19T02:21:09.264Z,92910.00
2023-04-19T02:22:09.260Z,92910.00
2023-04-19T02:23:09.249Z,92908.00
2023-04-19T02:24:09.246Z,92906.00
2023-04-19T02:25:09.247Z,92906.00
2023-04-19T02:26:09.242Z,92906.00
2023-04-19T02:27:09.246Z,92906.00
2023-04-19T02:28:09.252Z,92906.00
2023-04-19T02:29:09.250Z,92908.00
2023-04-19T02:30:09.250Z,92906.00
2023-04-19T02:31:09.235Z,92908.00
2023-04-19T02:32:09.398Z,92904.00
2023-04-19T02:33:09.224Z,92906.00
2023-04-19T02:34:09.218Z,92904.00
2023-04-19T02:35:09.197Z,92906.00
2023-04-19T02:36:09.199Z,92906.00
2023-04-19T02:37:09.200Z,92906.00
2023-04-19T02:38:09.192Z,92906.00
2023-04-19T02:39:09.188Z,92908.00
2023-04-19T02:40:09.230Z,92908.00
2023-04-19T02:41:09.148Z,92908.00
2023-04-19T02:42:09.159Z,92906.00
2023-04-19T02:43:09.147Z,92906.00
2023-04-19T02:44:09.145Z,92904.00
2023-04-19T02:45:09.131Z,92904.00
2023-04-19T02:46:09.159Z,92900.00
2023-04-19T02:47:09.138Z,92900.00
2023-04-19T02:48:09.156Z,92900.00
2023-04-19T02:49:09.115Z,92898.00
2023-04-19T02:50:09.105Z,92896.00
2023-04-19T02:51:09.091Z,92898.00
2023-04-19T02:52:09.126Z,92898.00
2023-04-19T02:53:09.086Z,92900.00
2023-04-19T02:54:09.080Z,92898.00
2023-04-19T02:55:09.063Z,92898.00
2023-04-19T02:56:09.060Z,92898.00
2023-04-19T02:57:09.061Z,92896.00
2023-04-19T02:58:09.051Z,92898.00
2023-04-19T02:59:09.054Z,92894.00
2023-04-19T03:00:09.041Z,92896.00
2023-04-19T03:01:09.051Z,92894.00
2023-04-19T03:02:09.056Z,92894.00
2023-04-19T03:03:09.077Z,92896.00
2023-04-19T03:04:09.079Z,92894.00
2023-04-19T03:05:08.988Z,92894.00
2023-04-19T03:06:09.003Z,92898.00
2023-04-19T03:07:09.003Z,92894.00
2023-04-19T03:08:08.980Z,92894.00
2023-04-19T03:09:08.987Z,92896.00
2023-04-19T03:10:08.989Z,92898.00
2023-04-19T03:11:08.988Z,92894.00
2023-04-19T03:12:08.970Z,92894.00
2023-04-19T03:13:08.966Z,92896.00
2023-04-19T03:14:08.980Z,92896.00
2023-04-19T03:15:08.954Z,92896.00
2023-04-19T03:16:09.011Z,92898.00
2023-04-19T03:17:08.943Z,92898.00
2023-04-19T03:18:08.934Z,92900.00
2023-04-19T03:19:08.959Z,92896.00
2023-04-19T03:20:08.907Z,92898.00
2023-04-19T03:21:08.911Z,92896.00
2023-04-19T03:22:08.923Z,92898.00
2023-04-19T03:23:08.906Z,92896.00
2023-04-19T03:24:08.917Z,92892.00
2023-04-19T03:25:08.909Z,92896.00
2023-04-19T03:26:08.908Z,92894.00
2023-04-19T03:27:08.896Z,92894.00
2023-04-19T03:28:08.899Z,92892.00
2023-04-19T03:29:08.954Z,92894.00
2023-04-19T03:30:08.901Z,92894.00
2023-04-19T03:31:08.918Z,92888.00
2023-04-19T03:32:08.892Z,92888.00
2023-04-19T03:33:08.903Z,92888.00
2023-04-19T03:34:08.902Z,92884.00
2023-04-19T03:35:08.895Z,92882.00
2023-04-19T03:36:08.893Z,92880.00
2023-04-19T03:37:08.889Z,92880.00
2023-04-19T03:38:08.898Z,92880.00
2023-04-19T03:39:08.921Z,92880.00
2023-04-19T03:40:08.908Z,92882.00
2023-04-19T03:41:08.908Z,92879.00
2023-04-19T03:42:08.902Z,92879.00
2023-04-19T03:43:08.923Z,92879.00
2023-04-19T03:44:08.929Z,92877.00
2023-04-19T03:45:08.922Z,92877.00
2023-04-19T03:46:08.934Z,92873.00
2023-04-19T03:47:08.908Z,92875.00
2023-04-19T03:48:08.930Z,92875.00
2023-04-19T03:49:08.932Z,92873.00
2023-04-19T03:50:08.926Z,92873.00
2023-04-19T03:51:08.911Z,92875.00
2023-04-19T03:52:08.921Z,92873.00
2023-04-19T03:53:08.912Z,92873.00
2023-04-19T03:54:08.900Z,92871.00
2023-04-19T03:55:08.909Z,92873.00
2023-04-19T03:56:08.887Z,92873.00
2023-04-19T03:57:08.912Z,92873.00
2023-04-19T03:58:08.897Z,92871.00
2023-04-19T03:59:08.913Z,92871.00
2023-04-19T04:00:08.936Z,92873.00
2023-04-19T04:01:08.925Z,92873.00
2023-04-19T04:02:09.005Z,92875.00
2023-04-19T04:03:09.131Z,92873.00
2023-04-19T04:04:09.045Z,92873.00
2023-04-19T04:05:09.076Z,92873.00
2023-04-19T04:06:08.897Z,92873.00
2023-04-19T04:07:08.899Z,92873.00
2023-04-19T04:08:08.888Z,92875.00
2023-04-19T04:09:08.886Z,92875.00
2023-04-19T04:10:08.881Z,92873.00
2023-04-19T04:11:08.891Z,92873.00
2023-04-19T04:12:08.883Z,92873.00
2023-04-19T04:13:08.866Z,92873.00
2023-04-19T04:14:08.888Z,92875.00
2023-04-19T04:15:08.881Z,92875.00
2023-04-19T04:16:09.010Z,92873.00
2023-04-19T04:17:08.881Z,92875.00
2023-04-19T04:18:09.296Z,92875.00
2023-04-19T04:19:08.855Z,92875.00
2023-04-19T04:20:08.875Z,92875.00
2023-04-19T04:21:08.864Z,92875.00
2023-04-19T04:22:09.600Z,92875.00
2023-04-19T04:23:08.858Z,92877.00
2023-04-19T04:24:08.864Z,92877.00
2023-04-19T04:25:08.840Z,92875.00
2023-04-19T04:26:08.843Z,92877.00
2023-04-19T04:27:08.840Z,92877.00
2023-04-19T04:28:08.846Z,92877.00
2023-04-19T04:29:08.842Z,92877.00
2023-04-19T04:30:08.844Z,92877.00
2023-04-19T04:31:08.834Z,92877.00
2023-04-19T04:32:08.864Z,92879.00
2023-04-19T04:33:08.840Z,92879.00
2023-04-19T04:34:08.834Z,92877.00
2023-04-19T04:35:08.828Z,92879.00
2023-04-19T04:36:09.873Z,92875.00
2023-04-19T04:37:08.859Z,92875.00
2023-04-19T04:38:21.522Z,92877.00
2023-04-19T04:39:09.808Z,92877.00
2023-04-19T04:40:08.772Z,92879.00
2023-04-19T04:41:08.764Z,92875.00
2023-04-19T04:42:08.854Z,92879.00
2023-04-19T04:43:08.735Z,92879.00
2023-04-19T04:44:12.470Z,92877.00
2023-04-19T04:45:08.728Z,92880.00
2023-04-19T04:46:08.760Z,92880.00
2023-04-19T04:47:08.707Z,92880.00
2023-04-19T04:48:08.698Z,92882.00
2023-04-19T04:49:08.694Z,92882.00
2023-04-19T04:50:08.695Z,92884.00
2023-04-19T04:51:08.680Z,92880.00
2023-04-19T04:52:08.710Z,92880.00
2023-04-19T04:53:09.135Z,92880.00
2023-04-19T04:54:08.658Z,92884.00
2023-04-19T04:55:08.656Z,92886.00
2023-04-19T04:56:08.649Z,92884.00
2023-04-19T04:57:08.631Z,92884.00
2023-04-19T04:58:08.639Z,92882.00
2023-04-19T04:59:08.625Z,92884.00
2023-04-19T05:00:08.606Z,92888.00
2023-04-19T05:01:08.643Z,92888.00
2023-04-19T05:02:08.689Z,92886.00
2023-04-19T05:03:08.661Z,92884.00
2023-04-19T05:04:08.583Z,92882.00
2023-04-19T05:05:08.534Z,92882.00
2023-04-19T05:06:08.537Z,92884.00
2023-04-19T05:07:08.532Z,92882.00
2023-04-19T05:08:08.499Z,92880.00
2023-04-19T05:09:08.501Z,92880.00
2023-04-19T05:10:08.505Z,92880.00
2023-04-19T05:11:08.492Z,92884.00
2023-04-19T05:12:08.474Z,92880.00
2023-04-19T05:13:08.474Z,92880.00
2023-04-19T05:14:08.471Z,92879.00
2023-04-19T05:15:08.454Z,92879.00
2023-04-19T05:16:08.470Z,92880.00
2023-04-19T05:17:08.521Z,92882.00
2023-04-19T05:18:08.420Z,92880.00
2023-04-19T05:19:08.414Z,92880.00
2023-04-19T05:20:08.477Z,92880.00
2023-04-19T05:21:08.390Z,92880.00
2023-04-19T05:22:08.374Z,92880.00
2023-04-19T05:23:08.396Z,92877.00
2023-04-19T05:24:08.367Z,92879.00
2023-04-19T05:25:08.341Z,92879.00
2023-04-19T05:26:08.337Z,92877.00
2023-04-19T05:27:08.322Z,92879.00
2023-04-19T05:28:08.314Z,92877.00
2023-04-19T05:29:08.326Z,92879.00
2023-04-19T05:30:08.314Z,92880.00
2023-04-19T05:31:08.321Z,92877.00
2023-04-19T05:32:08.306Z,92879.00
2023-04-19T05:33:08.301Z,92880.00
2023-04-19T05:34:08.258Z,92879.00
2023-04-19T05:35:08.272Z,92879.00
2023-04-19T05:36:08.221Z,92879.00
2023-04-19T05:37:08.224Z,92879.00
2023-04-19T05:38:08.192Z,92875.00
2023-04-19T05:39:08.182Z,92875.00
2023-04-19T05:40:09.150Z,92873.00
2023-04-19T05:41:08.155Z,92873.00
2023-04-19T05:42:08.122Z,92877.00
2023-04-19T05:43:08.140Z,92877.00
2023-04-19T05:44:08.106Z,92877.00
2023-04-19T05:45:08.103Z,92877.00
2023-04-19T05:46:08.110Z,92875.00
2023-04-19T05:47:08.068Z,92875.00
2023-04-19T05:48:08.093Z,92875.00
2023-04-19T05:49:08.037Z,92875.00
2023-04-19T05:50:08.035Z,92879.00
2023-04-19T05:51:08.033Z,92877.00
2023-04-19T05:52:08.087Z,92875.00
2023-04-19T05:53:08.118Z,92877.00
2023-04-19T05:54:08.168Z,92877.00
2023-04-19T05:55:08.202Z,92877.00
2023-04-19T05:56:08.252Z,92875.00
2023-04-19T05:57:08.253Z,92877.00
2023-04-19T05:58:08.263Z,92875.00
2023-04-19T05:59:08.314Z,92873.00
2023-04-19T06:00:08.361Z,92873.00
2023-04-19T06:01:08.463Z,92873.00
2023-04-19T06:02:08.530Z,92873.00
2023-04-19T06:03:08.752Z,92873.00
2023-04-19T06:04:09.230Z,92871.00
2023-04-19T06:05:10.801Z,92869.00
2023-04-19T06:06:08.590Z,92871.00
2023-04-19T06:07:17.757Z,92869.00
2023-04-19T06:08:09.566Z,92871.00
2023-04-19T06:09:08.524Z,92873.00
2023-04-19T06:10:09.155Z,92871.00
2023-04-19T06:11:20.178Z,92871.00
2023-04-19T06:12:09.470Z,92871.00
2023-04-19T06:13:08.482Z,92873.00
2023-04-19T06:14:08.446Z,92871.00
2023-04-19T06:15:08.426Z,92869.00
2023-04-19T06:16:08.445Z,92869.00
2023-04-19T06:17:08.392Z,92873.00
2023-04-19T06:18:08.423Z,92873.00
2023-04-19T06:19:08.389Z,92873.00
2023-04-19T06:20:08.377Z,92873.00
2023-04-19T06:21:08.396Z,92873.00
2023-04-19T06:22:08.447Z,92875.00
2023-04-19T06:23:08.493Z,92879.00
2023-04-19T06:24:08.558Z,92877.00
2023-04-19T06:25:08.608Z,92875.00
2023-04-19T06:26:08.646Z,92875.00
2023-04-19T06:27:08.700Z,92875.00
2023-04-19T06:28:08.764Z,92873.00
2023-04-19T06:29:08.833Z,92875.00
2023-04-19T06:30:08.875Z,92873.00
2023-04-19T06:31:08.953Z,92875.00
2023-04-19T06:32:08.880Z,92871.00
2023-04-19T06:33:08.864Z,92871.00
2023-04-19T06:34:08.870Z,92875.00
2023-04-19T06:35:08.874Z,92873.00
2023-04-19T06:36:08.882Z,92877.00
2023-04-19T06:37:08.890Z,92875.00
2023-04-19T06:38:08.925Z,92875.00
2023-04-19T06:39:08.912Z,92877.00
2023-04-19T06:40:09.022Z,92877.00
2023-04-19T06:41:08.937Z,92879.00
2023-04-19T06:42:09.160Z,92875.00
2023-04-19T06:43:08.977Z,92877.00
2023-04-19T06:44:09.001Z,92871.00
2023-04-19T06:45:09.021Z,92869.00
2023-04-19T06:46:09.162Z,92869.00
2023-04-19T06:47:09.045Z,92871.00
2023-04-19T06:48:09.164Z,92871.00
2023-04-19T06:49:09.098Z,92867.00
2023-04-19T06:50:09.124Z,92867.00
2023-04-19T06:51:09.162Z,92865.00
2023-04-19T06:52:09.190Z,92865.00
2023-04-19T06:53:09.200Z,92863.00
2023-04-19T06:54:09.230Z,92861.00
2023-04-19T06:55:09.245Z,92859.00
2023-04-19T06:56:09.323Z,92863.00
2023-04-19T06:57:09.303Z,92861.00
2023-04-19T06:58:09.299Z,92867.00
2023-04-19T06:59:09.315Z,92863.00
2023-04-19T07:00:09.323Z,92863.00
2023-04-19T07:01:09.316Z,92861.00
2023-04-19T07:02:09.410Z,92859.00
2023-04-19T07:03:09.399Z,92861.00
2023-04-19T07:04:10.359Z,92861.00
2023-04-19T07:05:09.346Z,92857.00
2023-04-19T07:06:09.363Z,92859.00
2023-04-19T07:07:09.411Z,92857.00
2023-04-19T07:08:09.457Z,92857.00
2023-04-19T07:09:09.515Z,92855.00
2023-04-19T07:10:09.559Z,92851.00
2023-04-19T07:11:09.586Z,92853.00
2023-04-19T07:12:09.905Z,92855.00
2023-04-19T07:13:09.635Z,92853.00
2023-04-19T07:14:09.672Z,92853.00
2023-04-19T07:15:09.696Z,92849.00
2023-04-19T07:16:09.738Z,92851.00
2023-04-19T07:17:09.725Z,92853.00
2023-04-19T07:18:09.751Z,92851.00
2023-04-19T07:19:09.791Z,92849.00
2023-04-19T07:20:09.774Z,92851.00
2023-04-19T07:21:09.784Z,92847.00
2023-04-19T07:22:09.780Z,92849.00
2023-04-19T07:23:09.797Z,92847.00
2023-04-19T07:24:09.784Z,92845.00
2023-04-19T07:25:09.772Z,92845.00
2023-04-19T07:26:09.757Z,92847.00
2023-04-19T07:27:09.750Z,92845.00
2023-04-19T07:28:09.753Z,92841.00
2023-04-19T07:29:09.718Z,92839.00
2023-04-19T07:30:09.693Z,92839.00
2023-04-19T07:31:09.665Z,92837.00
2023-04-19T07:32:09.678Z,92837.00
2023-04-19T07:33:09.622Z,92835.00
2023-04-19T07:34:09.565Z,92839.00
2023-04-19T07:35:09.551Z,92835.00
2023-04-19T07:36:09.537Z,92835.00
2023-04-19T07:37:09.511Z,92833.00
2023-04-19T07:38:09.507Z,92826.00
2023-04-19T07:39:09.514Z,92826.00
2023-04-19T07:40:09.586Z,92824.00
2023-04-19T07:41:09.489Z,92824.00
2023-04-19T07:42:09.481Z,92822.00
2023-04-19T07:43:09.469Z,92818.00
2023-04-19T07:44:09.561Z,92822.00
2023-04-19T07:45:09.492Z,92820.00
2023-04-19T07:46:09.458Z,92814.00
2023-04-19T07:47:09.448Z,92810.00
2023-04-19T07:48:09.522Z,92810.00
2023-04-19T07:49:09.469Z,92806.00
2023-04-19T07:50:09.604Z,92804.00
2023-04-19T07:51:09.529Z,92802.00
2023-04-19T07:52:09.537Z,92800.00
2023-04-19T07:53:09.545Z,92798.00
2023-04-19T07:54:09.593Z,92795.00
2023-04-19T07:55:09.633Z,92793.00
2023-04-19T07:56:10.460Z,92795.00
2023-04-19T07:57:09.794Z,92793.00
2023-04-19T07:58:09.826Z,92793.00
2023-04-19T07:59:09.870Z,92789.00
2023-04-19T08:00:10.107Z,92789.00
2023-04-19T08:01:09.933Z,92791.00
2023-04-19T08:02:09.981Z,92791.00
2023-04-19T08:03:10.186Z,92789.00
2023-04-19T08:04:10.356Z,92789.00
2023-04-19T08:05:10.266Z,92789.00
2023-04-19T08:06:10.059Z,92785.00
2023-04-19T08:07:10.074Z,92785.00
2023-04-19T08:08:10.111Z,92781.00
2023-04-19T08:09:10.136Z,92781.00
2023-04-19T08:10:10.174Z,92777.00
2023-04-19T08:11:10.175Z,92775.00
2023-04-19T08:12:14.842Z,92773.00
2023-04-19T08:13:11.157Z,92769.00
2023-04-19T08:14:28.281Z,92771.00
2023-04-19T08:15:28.117Z,92771.00
2023-04-19T08:16:24.618Z,92771.00
2023-04-19T08:17:22.219Z,92765.00
2023-04-19T08:18:11.109Z,92765.00
2023-04-19T08:19:09.933Z,92765.00
2023-04-19T08:20:09.905Z,92765.00
2023-04-19T08:21:09.867Z,92761.00
2023-04-19T08:22:09.836Z,92763.00
2023-04-19T08:23:20.671Z,92763.00
2023-04-19T08:24:10.775Z,92755.00
2023-04-19T08:25:09.753Z,92759.00
2023-04-19T08:26:09.688Z,92753.00
2023-04-19T08:27:09.646Z,92755.00
2023-04-19T08:28:09.610Z,92753.00
2023-04-19T08:29:09.587Z,92751.00
2023-04-19T08:30:09.533Z,92755.00
2023-04-19T08:31:09.491Z,92753.00
2023-04-19T08:32:09.592Z,92751.00
2023-04-19T08:33:09.537Z,92751.00
2023-04-19T08:34:09.532Z,92749.00
2023-04-19T08:35:09.571Z,92748.00
2023-04-19T08:36:09.601Z,92746.00
2023-04-19T08:37:09.620Z,92744.00
2023-04-19T08:38:09.765Z,92742.00
2023-04-19T08:39:17.808Z,92742.00
2023-04-19T08:40:10.640Z,92740.00
2023-04-19T08:41:09.587Z,92740.00
2023-04-19T08:42:18.270Z,92740.00
2023-04-19T08:43:10.529Z,92740.00
2023-04-19T08:44:09.487Z,92738.00
2023-04-19T08:46:09.458Z,92738.00
2023-04-19T08:47:11.563Z,92738.00
2023-04-19T08:48:09.346Z,92736.00
2023-04-19T08:49:09.288Z,92734.00
2023-04-19T08:50:20.571Z,92738.00
2023-04-19T08:51:10.219Z,92734.00
2023-04-19T08:52:09.184Z,92738.00
2023-04-19T08:54:10.103Z,92726.00
2023-04-19T08:55:09.070Z,92730.00
2023-04-19T08:56:15.181Z,92730.00
2023-04-19T08:57:10.009Z,92726.00
2023-04-19T08:58:15.286Z,92726.00
2023-04-19T08:59:20.127Z,92722.00
2023-04-19T09:00:09.899Z,92722.00
2023-04-19T09:01:12.940Z,92722.00
2023-04-19T09:02:09.943Z,92718.00
2023-04-19T09:03:08.914Z,92720.00
2023-04-19T09:04:26.304Z,92722.00
2023-04-19T09:05:09.881Z,92718.00
2023-04-19T09:06:08.883Z,92714.00
2023-04-19T09:07:08.641Z,92712.00
2023-04-19T09:08:08.595Z,92712.00
2023-04-19T09:09:10.297Z,92712.00
2023-04-19T09:10:09.610Z,92714.00
2023-04-19T09:11:08.493Z,92714.00
2023-04-19T09:12:08.439Z,92708.00
2023-04-19T09:13:08.396Z,92708.00
2023-04-19T09:14:08.354Z,92702.00
2023-04-19T09:15:08.304Z,92698.00
2023-04-19T09:16:08.297Z,92700.00
2023-04-19T09:17:08.215Z,92694.00
2023-04-19T09:18:08.754Z,92698.00
2023-04-19T09:20:08.094Z,92698.00
2023-04-19T09:21:08.050Z,92694.00
2023-04-19T09:22:08.015Z,92693.00
2023-04-19T09:23:07.991Z,92691.00
2023-04-19T09:24:07.932Z,92691.00
2023-04-19T09:27:08.813Z,92689.00
2023-04-19T09:28:07.770Z,92683.00
2023-04-19T09:29:07.736Z,92685.00
2023-04-19T09:30:12.733Z,92683.00
2023-04-19T09:31:26.189Z,92687.00
2023-04-19T09:32:08.683Z,92683.00
2023-04-19T09:33:07.713Z,92679.00
2023-04-19T09:34:07.541Z,92677.00
2023-04-19T09:35:07.502Z,92679.00
2023-04-19T09:36:07.773Z,92675.00
2023-04-19T09:37:15.061Z,92675.00
2023-04-19T09:38:08.393Z,92679.00
2023-04-19T09:39:07.365Z,92679.00
2023-04-19T09:40:07.353Z,92673.00
2023-04-19T09:41:08.227Z,92669.00
2023-04-19T09:42:07.267Z,92669.00
2023-04-19T09:43:17.838Z,92665.00
2023-04-19T09:46:07.188Z,92665.00
2023-04-19T09:47:07.189Z,92665.00
2023-04-19T09:48:08.060Z,92661.00
2023-04-19T09:49:17.212Z,92661.00
2023-04-19T09:50:21.377Z,92661.00
2023-04-19T09:51:11.904Z,92659.00
2023-04-19T09:52:07.963Z,92661.00
2023-04-19T09:53:06.930Z,92657.00
2023-04-19T09:54:06.916Z,92655.00
2023-04-19T09:55:17.761Z,92655.00
2023-04-19T09:56:07.845Z,92653.00
2023-04-19T09:57:06.801Z,92653.00
2023-04-19T09:58:06.787Z,92653.00
2023-04-19T09:59:17.402Z,92653.00
2023-04-19T10:00:07.774Z,92651.00
2023-04-19T10:01:15.097Z,92649.00
2023-04-19T10:02:07.764Z,92649.00
2023-04-19T10:03:06.763Z,92649.00
2023-04-19T10:04:22.565Z,92651.00
2023-04-19T10:06:10.626Z,92647.00
2023-04-19T10:08:07.644Z,92647.00
2023-04-19T10:09:06.491Z,92644.00
2023-04-19T10:10:18.587Z,92644.00
2023-04-19T10:11:07.448Z,92644.00
2023-04-19T10:12:18.463Z,92642.00
2023-04-19T10:13:15.998Z,92642.00
2023-04-19T10:14:07.372Z,92646.00
2023-04-19T10:15:06.342Z,92640.00
2023-04-19T10:16:18.273Z,92638.00
2023-04-19T10:17:07.296Z,92638.00
2023-04-19T10:18:06.307Z,92640.00
2023-04-19T10:19:07.634Z,92636.00
2023-04-19T10:20:06.214Z,92640.00
2023-04-19T10:21:06.205Z,92638.00
2023-04-19T10:22:06.177Z,92640.00
2023-04-19T10:23:06.176Z,92636.00
2023-04-19T10:24:06.230Z,92638.00
2023-04-19T10:25:06.191Z,92638.00
2023-04-19T10:26:06.162Z,92634.00
2023-04-19T10:27:06.843Z,92632.00
2023-04-19T10:28:06.172Z,92634.00
2023-04-19T10:29:06.192Z,92634.00
2023-04-19T10:30:07.510Z,92636.00
2023-04-19T10:31:06.205Z,92628.00
2023-04-19T10:32:06.334Z,92628.00
2023-04-19T10:33:06.249Z,92632.00
2023-04-19T10:34:06.209Z,92628.00
2023-04-19T10:35:06.232Z,92628.00
2023-04-19T10:36:06.252Z,92626.00
2023-04-19T10:37:06.289Z,92624.00
2023-04-19T10:38:06.277Z,92624.00
2023-04-19T10:39:06.265Z,92624.00
2023-04-19T10:40:06.278Z,92628.00
2023-04-19T10:41:06.290Z,92628.00
2023-04-19T10:42:06.307Z,92624.00
2023-04-19T10:43:06.316Z,92622.00
2023-04-19T10:44:06.326Z,92620.00
2023-04-19T10:45:06.338Z,92620.00
2023-04-19T10:46:06.376Z,92618.00
2023-04-19T10:47:06.375Z,92618.00
2023-04-19T10:48:06.396Z,92618.00
2023-04-19T10:49:06.386Z,92612.00
2023-04-19T10:50:06.398Z,92612.00
2023-04-19T10:51:06.413Z,92606.00
2023-04-19T10:52:06.419Z,92608.00
2023-04-19T10:53:06.420Z,92606.00
2023-04-19T10:54:06.452Z,92606.00
2023-04-19T10:55:06.447Z,92604.00
2023-04-19T10:56:06.568Z,92600.00
2023-04-19T10:57:06.465Z,92598.00
2023-04-19T10:58:06.483Z,92598.00
2023-04-19T10:59:06.526Z,92594.00
2023-04-19T11:00:06.505Z,92596.00
2023-04-19T11:01:06.554Z,92594.00
2023-04-19T11:02:06.755Z,92596.00
2023-04-19T11:03:06.651Z,92596.00
2023-04-19T11:04:06.744Z,92592.00
2023-04-19T11:05:06.590Z,92592.00
2023-04-19T11:06:06.602Z,92591.00
2023-04-19T11:07:06.622Z,92589.00
2023-04-19T11:08:06.658Z,92591.00
2023-04-19T11:09:06.641Z,92585.00
2023-04-19T11:10:06.685Z,92587.00
2023-04-19T11:11:06.660Z,92587.00
2023-04-19T11:12:06.684Z,92587.00
2023-04-19T11:13:06.706Z,92583.00
2023-04-19T11:14:06.716Z,92579.00
2023-04-19T11:15:06.735Z,92581.00
2023-04-19T11:16:06.791Z,92581.00
2023-04-19T11:17:06.909Z,92581.00
2023-04-19T11:18:12.543Z,92577.00
2023-04-19T11:19:07.757Z,92577.00
2023-04-19T11:20:06.741Z,92577.00
2023-04-19T11:21:06.729Z,92579.00
2023-04-19T11:22:06.712Z,92569.00
2023-04-19T11:23:06.692Z,92579.00
2023-04-19T11:24:06.697Z,92581.00
2023-04-19T11:25:06.655Z,92577.00
2023-04-19T11:26:06.639Z,92569.00
2023-04-19T11:27:06.628Z,92569.00
2023-04-19T11:28:06.605Z,92567.00
2023-04-19T11:29:06.576Z,92565.00
2023-04-19T11:30:06.554Z,92563.00
2023-04-19T11:31:06.580Z,92563.00
2023-04-19T11:32:06.527Z,92561.00
2023-04-19T11:33:06.559Z,92561.00
2023-04-19T11:34:06.492Z,92565.00
2023-04-19T11:35:06.476Z,92565.00
2023-04-19T11:36:06.454Z,92561.00
2023-04-19T11:37:06.479Z,92559.00
2023-04-19T11:38:06.492Z,92561.00
2023-04-19T11:39:06.532Z,92556.00
2023-04-19T11:40:06.575Z,92556.00
2023-04-19T11:41:06.605Z,92554.00
2023-04-19T11:42:06.627Z,92554.00
2023-04-19T11:43:06.619Z,92558.00
2023-04-19T11:44:06.763Z,92550.00
2023-04-19T11:45:11.021Z,92550.00
2023-04-19T11:46:07.697Z,92548.00
2023-04-19T11:47:06.662Z,92554.00
2023-04-19T11:48:06.646Z,92548.00
2023-04-19T11:49:06.609Z,92548.00
2023-04-19T11:50:06.583Z,92546.00
2023-04-19T11:51:06.569Z,92544.00
2023-04-19T11:52:06.654Z,92544.00
2023-04-19T11:53:06.522Z,92542.00